Time;durP1;ratioP1;P1;durP2;ratioP2;P2;SDS_P1;SDS_P2;PMS_P1;PMS_P2;Temp;Humidity;BMP_temperature;BMP_pressure;BME280_temperature;BME280_humidity;BME280_pressure;Samples;Min_cycle;Max_cycle;Signal;HPM_P1;HPM_P2
2023/05/29 00:03:19;;;;;;;11.23;5.38;;;;;;;11.48;100.00;101945.38;10492510;28;20115;-82
2023/05/29 00:08:19;;;;;;;12.13;6.45;;;;;;;11.43;100.00;101952.03;10487543;28;20135;-81
2023/05/29 00:13:20;;;;;;;21.50;8.32;;;;;;;11.40;100.00;101950.13;10483071;28;20123;-81
2023/05/29 00:18:20;;;;;;;12.55;5.45;;;;;;;11.32;100.00;101953.97;10491989;28;20068;-80
2023/05/29 00:23:21;;;;;;;9.98;5.65;;;;;;;11.21;100.00;101961.19;10482887;28;20545;-82
2023/05/29 00:28:21;;;;;;;17.30;6.30;;;;;;;11.17;100.00;101964.44;10452529;28;20119;-84
2023/05/29 00:33:22;;;;;;;14.02;6.15;;;;;;;11.06;100.00;101979.47;10483147;28;20123;-81
2023/05/29 00:38:22;;;;;;;13.13;5.82;;;;;;;11.01;100.00;101978.25;10484655;28;20123;-82
2023/05/29 00:43:23;;;;;;;10.32;5.30;;;;;;;10.94;100.00;101983.91;10476783;28;20499;-82
2023/05/29 00:48:24;;;;;;;11.95;6.72;;;;;;;10.80;100.00;101996.13;10477255;28;20047;-81
2023/05/29 00:53:25;;;;;;;10.40;7.03;;;;;;;10.74;100.00;102001.88;10496389;28;20040;-82
2023/05/29 00:58:25;;;;;;;11.82;6.43;;;;;;;10.71;100.00;102004.28;10489249;28;20052;-82
2023/05/29 01:03:26;;;;;;;14.75;8.02;;;;;;;10.68;100.00;102023.34;10442049;28;20112;-82
2023/05/29 01:08:26;;;;;;;17.08;8.43;;;;;;;10.63;100.00;102024.75;10463342;28;20447;-82
2023/05/29 01:13:29;;;;;;;15.77;8.27;;;;;;;10.51;100.00;102022.19;10486271;28;20135;-81
2023/05/29 01:18:48;;;;;;;;;;;;;;;10.44;100.00;102025.22;10490816;28;20554;-82
2023/05/29 01:24:01;;;;;;;16.50;7.72;;;;;;;10.34;100.00;102023.69;10488354;28;19928;-82
2023/05/29 01:29:02;;;;;;;14.90;8.18;;;;;;;10.20;100.00;102027.06;10521531;28;20387;-81
2023/05/29 01:34:03;;;;;;;11.95;6.13;;;;;;;10.10;100.00;102030.75;10505796;28;20123;-80
2023/05/29 01:39:03;;;;;;;15.98;7.70;;;;;;;9.96;100.00;102043.78;10528692;28;20078;-80
2023/05/29 01:44:08;;;;;;;18.02;6.03;;;;;;;9.93;100.00;102046.19;10464099;28;20044;-80
2023/05/29 01:49:09;;;;;;;13.35;6.80;;;;;;;9.90;100.00;102045.97;10521148;28;20037;-80
2023/05/29 01:54:10;;;;;;;19.25;7.28;;;;;;;9.80;100.00;102049.69;10523477;28;20033;-80
2023/05/29 01:59:10;;;;;;;14.95;7.13;;;;;;;9.66;100.00;102055.66;10488292;28;20052;-80
2023/05/29 02:04:11;;;;;;;22.95;5.90;;;;;;;9.50;100.00;102056.25;10519067;28;20032;-80
2023/05/29 02:09:12;;;;;;;17.33;6.25;;;;;;;9.39;100.00;102059.00;10488797;28;20439;-80
2023/05/29 02:14:12;;;;;;;11.93;4.82;;;;;;;9.33;100.00;102063.81;10488200;28;20041;-81
2023/05/29 02:19:13;;;;;;;11.40;4.55;;;;;;;9.19;100.00;102065.44;10497996;28;20036;-80
2023/05/29 02:24:13;;;;;;;19.52;5.85;;;;;;;9.20;100.00;102061.09;10487348;28;20441;-81
2023/05/29 02:29:14;;;;;;;13.00;5.10;;;;;;;9.11;100.00;102062.25;10503024;28;20131;-80
2023/05/29 02:34:15;;;;;;;14.82;6.65;;;;;;;9.01;100.00;102058.88;10488183;28;20036;-80
2023/05/29 02:39:15;;;;;;;14.60;5.47;;;;;;;8.89;100.00;102051.94;10488547;28;20044;-79
2023/05/29 02:44:16;;;;;;;13.60;4.50;;;;;;;8.83;100.00;102061.94;10488221;28;20119;-79
2023/05/29 02:49:16;;;;;;;11.82;6.03;;;;;;;8.70;100.00;102054.00;10536747;28;20158;-81
2023/05/29 02:54:17;;;;;;;15.88;5.18;;;;;;;8.59;100.00;102059.31;10522429;28;20119;-80
2023/05/29 02:59:17;;;;;;;10.77;3.88;;;;;;;8.59;100.00;102055.78;10469780;28;20160;-80
2023/05/29 03:04:18;;;;;;;16.92;5.63;;;;;;;8.50;100.00;102069.06;10462091;28;20115;-81
2023/05/29 03:09:19;;;;;;;18.70;5.88;;;;;;;8.50;100.00;102074.28;10484142;28;20532;-81
2023/05/29 03:14:21;;;;;;;15.70;5.97;;;;;;;8.48;100.00;102074.13;10485553;28;20089;-81
2023/05/29 03:19:21;;;;;;;10.40;4.15;;;;;;;8.38;100.00;102077.75;10483420;28;20029;-80
2023/05/29 03:24:23;;;;;;;13.20;4.57;;;;;;;8.40;100.00;102082.19;10516162;28;20040;-80
2023/05/29 03:29:24;;;;;;;14.40;4.22;;;;;;;8.37;100.00;102075.00;10483874;28;20079;-82
2023/05/29 03:34:25;;;;;;;21.05;6.95;;;;;;;8.36;100.00;102074.13;10486721;28;20119;-89
2023/05/29 03:39:25;;;;;;;14.98;5.82;;;;;;;8.33;100.00;102063.47;10444760;28;20037;-80
2023/05/29 03:44:26;;;;;;;18.67;5.75;;;;;;;8.33;100.00;102068.66;10443182;28;20037;-81
2023/05/29 03:49:26;;;;;;;13.80;5.07;;;;;;;8.32;100.00;102084.19;10508441;28;20123;-82
2023/05/29 03:54:27;;;;;;;14.38;4.10;;;;;;;8.34;100.00;102080.00;10459473;28;20124;-79
2023/05/29 03:59:27;;;;;;;15.77;4.82;;;;;;;8.32;100.00;102092.00;10483756;28;20449;-78
2023/05/29 04:04:28;;;;;;;16.98;5.22;;;;;;;8.40;100.00;102103.94;10451199;28;20032;-79
2023/05/29 04:09:28;;;;;;;14.45;5.25;;;;;;;8.40;100.00;102106.56;10466054;28;20055;-78
2023/05/29 04:14:29;;;;;;;29.30;6.43;;;;;;;8.47;100.00;102110.56;10481308;28;20518;-81
2023/05/29 04:19:29;;;;;;;13.98;5.88;;;;;;;8.48;100.00;102107.16;10479925;28;20032;-78
2023/05/29 04:24:31;;;;;;;12.45;5.05;;;;;;;8.61;100.00;102109.00;10481355;28;20128;-79
2023/05/29 04:29:33;;;;;;;17.15;5.30;;;;;;;8.71;100.00;102111.53;10520942;28;20046;-82
2023/05/29 04:34:34;;;;;;;14.60;5.47;;;;;;;9.03;100.00;102113.00;10522585;28;20051;-81
2023/05/29 04:39:35;;;;;;;16.73;5.03;;;;;;;9.29;100.00;102106.19;10482440;28;20132;-80
2023/05/29 04:44:35;;;;;;;23.92;6.00;;;;;;;9.35;100.00;102113.56;10481850;28;20060;-81
2023/05/29 04:49:36;;;;;;;29.30;6.85;;;;;;;9.41;100.00;102114.00;10447601;28;20418;-81
2023/05/29 04:54:37;;;;;;;21.23;6.63;;;;;;;9.44;100.00;102115.94;10475426;28;20175;-81
2023/05/29 04:59:37;;;;;;;18.13;6.10;;;;;;;9.51;100.00;102121.72;10481500;28;20476;-84
2023/05/29 05:04:38;;;;;;;19.42;5.80;;;;;;;9.96;100.00;102132.72;10483638;28;20125;-84
2023/05/29 05:09:39;;;;;;;15.48;4.93;;;;;;;10.53;100.00;102121.78;10496149;28;20553;-82
2023/05/29 05:14:39;;;;;;;11.75;5.63;;;;;;;11.10;100.00;102127.28;10480953;28;20455;-81
2023/05/29 05:19:40;;;;;;;13.13;3.92;;;;;;;11.57;100.00;102132.09;10482008;28;20037;-81
2023/05/29 05:24:41;;;;;;;19.35;4.90;;;;;;;12.78;100.00;102120.16;10483275;28;20130;-84
2023/05/29 05:29:41;;;;;;;15.07;4.80;;;;;;;12.98;100.00;102118.69;10483124;28;20040;-84
2023/05/29 05:34:42;;;;;;;12.80;4.40;;;;;;;13.59;100.00;102119.47;10480681;28;20395;-84
2023/05/29 05:39:43;;;;;;;11.20;4.13;;;;;;;13.94;100.00;102118.78;10520044;28;20107;-80
2023/05/29 05:44:43;;;;;;;16.40;4.78;;;;;;;14.60;100.00;102120.41;10492020;28;20123;-85
2023/05/29 05:49:44;;;;;;;16.88;4.45;;;;;;;15.26;100.00;102122.81;10482165;28;20116;-81
2023/05/29 05:54:45;;;;;;;14.95;4.63;;;;;;;15.37;100.00;102135.63;10485436;28;20036;-81
2023/05/29 05:59:45;;;;;;;16.83;4.85;;;;;;;15.95;100.00;102128.66;10506445;28;20467;-81
2023/05/29 06:04:46;;;;;;;8.70;4.50;;;;;;;16.46;100.00;102124.75;10447997;28;20124;-81
2023/05/29 06:09:47;;;;;;;15.95;4.50;;;;;;;16.24;100.00;102134.38;10487106;28;20060;-81
2023/05/29 06:14:47;;;;;;;10.75;4.30;;;;;;;16.61;100.00;102140.38;10459626;28;20124;-81
2023/05/29 06:19:48;;;;;;;10.73;3.67;;;;;;;17.37;100.00;102136.50;10445869;28;20098;-81
2023/05/29 06:24:48;;;;;;;8.43;3.83;;;;;;;17.98;91.56;102136.16;10485820;28;20045;-82
2023/05/29 06:29:49;;;;;;;8.87;3.80;;;;;;;17.78;88.49;102141.59;10485727;28;20469;-81
2023/05/29 06:34:49;;;;;;;11.77;3.67;;;;;;;17.79;97.10;102139.84;10487214;28;20143;-82
2023/05/29 06:39:50;;;;;;;12.90;3.97;;;;;;;17.82;89.48;102148.81;10486638;28;20060;-82
2023/05/29 06:44:50;;;;;;;7.88;4.28;;;;;;;18.03;86.19;102146.13;10508291;28;20047;-83
2023/05/29 06:49:51;;;;;;;6.80;2.63;;;;;;;19.05;76.31;102148.78;10490394;28;20135;-81
2023/05/29 06:54:54;;;;;;;9.63;4.20;;;;;;;19.66;75.02;102151.59;10516593;28;20044;-82
2023/05/29 06:59:55;;;;;;;15.32;4.07;;;;;;;20.16;70.03;102146.88;10475425;28;20140;-82
2023/05/29 07:04:55;;;;;;;11.90;3.72;;;;;;;20.57;66.01;102143.53;10484495;28;20089;-81
2023/05/29 07:09:56;;;;;;;13.50;4.67;;;;;;;20.05;69.40;102144.81;10468120;28;20041;-81
2023/05/29 07:14:56;;;;;;;10.77;2.50;;;;;;;20.90;62.55;102146.22;10490285;28;20460;-81
2023/05/29 07:19:57;;;;;;;17.53;4.47;;;;;;;20.95;60.56;102152.53;10506242;28;20064;-80
2023/05/29 07:24:58;;;;;;;11.90;4.80;;;;;;;20.75;62.84;102152.00;10482697;28;20044;-78
2023/05/29 07:29:58;;;;;;;13.27;3.93;;;;;;;20.88;61.32;102160.31;10486115;28;20048;-80
2023/05/29 07:34:59;;;;;;;8.50;3.47;;;;;;;20.57;61.88;102155.09;10513867;28;20116;-79
2023/05/29 07:39:59;;;;;;;14.73;4.70;;;;;;;20.79;61.89;102161.88;10458371;28;20441;-78
2023/05/29 07:45:00;;;;;;;24.80;5.93;;;;;;;21.41;60.83;102163.41;10484118;28;20049;-80
2023/05/29 07:50:05;;;;;;;9.97;4.77;;;;;;;21.39;59.92;102158.91;10444317;28;20044;-82
2023/05/29 07:55:06;;;;;;;8.35;3.28;;;;;;;21.73;57.71;102165.03;10482411;28;20507;-82
2023/05/29 08:00:07;;;;;;;11.40;3.47;;;;;;;21.73;55.98;102172.13;10483152;28;20089;-80
2023/05/29 08:05:08;;;;;;;20.85;4.10;;;;;;;21.68;58.07;102164.91;10479332;28;20458;-82
2023/05/29 08:10:09;;;;;;;9.37;3.43;;;;;;;21.69;57.59;102169.38;10458346;28;20029;-83
2023/05/29 08:15:10;;;;;;;10.27;4.10;;;;;;;21.93;55.52;102169.91;10441404;28;20341;-83
2023/05/29 08:20:11;;;;;;;12.53;4.20;;;;;;;22.41;56.71;102171.75;10440441;28;20048;-82
2023/05/29 08:25:12;;;;;;;18.47;5.07;;;;;;;22.93;53.39;102184.28;10440141;28;20071;-81
2023/05/29 08:30:13;;;;;;;12.50;4.33;;;;;;;23.17;51.54;102174.88;10443309;28;20041;-81
2023/05/29 08:35:14;;;;;;;31.53;6.93;;;;;;;22.85;51.85;102169.91;10414105;28;20033;-78
2023/05/29 08:40:14;;;;;;;14.73;3.63;;;;;;;22.73;54.12;102181.25;10416651;28;20036;-82
2023/05/29 08:45:15;;;;;;;12.93;4.37;;;;;;;23.22;51.43;102190.97;10431197;28;20029;-83
2023/05/29 08:50:16;;;;;;;13.77;4.53;;;;;;;22.72;51.24;102190.13;10432348;28;20457;-79
2023/05/29 08:55:17;;;;;;;12.03;4.20;;;;;;;22.71;53.40;102191.91;10435114;28;20143;-80
2023/05/29 09:00:18;;;;;;;33.77;5.43;;;;;;;22.59;53.31;102181.91;10410283;28;20516;-80
2023/05/29 09:05:19;;;;;;;18.00;4.15;;;;;;;23.30;54.04;102189.34;10425041;28;20526;-82
2023/05/29 09:10:20;;;;;;;13.97;4.20;;;;;;;23.56;50.92;102188.84;10430992;28;20179;-81
2023/05/29 09:15:21;;;;;;;13.05;3.30;;;;;;;24.01;49.90;102177.00;10474029;28;20135;-81
2023/05/29 09:20:24;;;;;;;28.90;6.05;;;;;;;23.45;50.91;102188.69;10464264;28;20103;-88
2023/05/29 09:25:27;;;;;;;19.40;4.47;;;;;;;23.34;52.24;102187.63;10428095;28;20527;-83
2023/05/29 09:30:41;;;;;;;7.13;3.17;;;;;;;23.57;50.04;102188.88;10435024;28;20033;-89
2023/05/29 09:35:43;;;;;;;11.88;3.28;;;;;;;24.11;49.91;102195.84;10460236;28;20418;-82
2023/05/29 09:40:46;;;;;;;17.70;4.22;;;;;;;23.84;49.86;102189.22;10447738;28;20127;-81
2023/05/29 09:45:47;;;;;;;12.88;2.92;;;;;;;23.60;49.26;102194.28;10434320;28;20120;-82
2023/05/29 09:50:48;;;;;;;8.02;2.67;;;;;;;24.45;47.00;102197.16;10439631;28;20029;-82
2023/05/29 09:55:50;;;;;;;8.20;3.00;;;;;;;24.78;47.13;102185.03;10450724;28;20127;-81
2023/05/29 10:00:53;;;;;;;17.00;5.28;;;;;;;23.94;48.90;102190.25;10410080;28;20053;-80
2023/05/29 10:05:56;;;;;;;8.45;3.42;;;;;;;24.25;47.94;102190.69;10426727;28;20049;-81
2023/05/29 10:11:01;;;;;;;8.93;3.60;;;;;;;24.23;47.66;102192.44;10413861;28;20045;-82
2023/05/29 10:16:03;;;;;;;11.48;3.67;;;;;;;24.52;46.65;102191.88;10474328;28;20119;-81
2023/05/29 10:21:03;;;;;;;;;;;;;;;23.85;46.13;102178.56;10446403;28;20036;-82
2023/05/29 10:26:11;;;;;;;14.80;3.92;;;;;;;23.43;49.15;102182.44;10434765;28;19936;-83
2023/05/29 10:31:16;;;;;;;9.35;3.83;;;;;;;23.47;48.71;102176.25;10462315;28;20044;-87
2023/05/29 10:36:24;;;;;;;8.73;2.90;;;;;;;23.35;48.61;102176.97;10446854;28;20119;-81
2023/05/29 10:41:27;;;;;;;8.68;4.05;;;;;;;23.28;47.96;102173.31;10412064;28;20048;-83
2023/05/29 10:46:47;;;;;;;9.30;3.58;;;;;;;22.77;52.77;102168.88;10434431;28;20427;-83
2023/05/29 10:51:48;;;;;;;10.63;3.72;;;;;;;23.16;50.65;102173.09;10435531;28;20053;-84
2023/05/29 10:56:58;;;;;;;8.03;3.00;;;;;;;23.65;49.00;102164.03;10406143;28;20048;-82
2023/05/29 11:02:00;;;;;;;11.05;3.40;;;;;;;23.67;46.94;102172.97;10447331;28;20074;-81
2023/05/29 11:07:05;;;;;;;7.38;3.30;;;;;;;24.29;47.30;102155.06;10442721;28;20055;-81
2023/05/29 11:12:13;;;;;;;9.70;4.50;;;;;;;24.88;46.98;102152.97;10423715;28;20036;-83
2023/05/29 11:17:32;;;;;;;8.10;3.22;;;;;;;25.45;42.42;102141.81;10443970;28;20102;-80
2023/05/29 11:22:40;;;;;;;7.43;2.63;;;;;;;25.38;44.78;102150.66;10473546;28;20547;-79
2023/05/29 11:27:43;;;;;;;6.72;4.15;;;;;;;25.19;45.12;102147.84;10444037;28;20086;-80
2023/05/29 11:32:43;;;;;;;15.80;4.43;;;;;;;25.28;44.87;102144.34;10427340;28;20086;-81
2023/05/29 11:37:45;;;;;;;8.93;3.17;;;;;;;25.18;44.51;102148.75;10441430;28;20103;-82
2023/05/29 11:42:47;;;;;;;;;;;;;;;25.01;44.66;102137.91;10443846;28;20044;-80
2023/05/29 11:47:51;;;;;;;;;;;;;;;25.08;44.54;102147.75;10445069;28;19966;-80
2023/05/29 11:52:51;;;;;;;10.40;3.22;;;;;;;24.94;46.09;102145.00;10443982;28;19936;-81
2023/05/29 11:58:05;;;;;;;7.27;2.80;;;;;;;25.26;42.77;102141.66;10426476;28;20040;-80
2023/05/29 12:03:06;;;;;;;10.52;3.55;;;;;;;24.22;45.20;102139.81;10440716;28;20393;-79
2023/05/29 12:08:07;;;;;;;17.42;4.10;;;;;;;24.41;47.37;102132.88;10443283;28;20476;-80
2023/05/29 12:13:07;;;;;;;14.60;4.10;;;;;;;24.91;44.82;102134.25;10426606;28;20171;-80
2023/05/29 12:18:08;;;;;;;8.30;2.97;;;;;;;25.07;43.63;102135.25;10473974;28;20129;-80
2023/05/29 12:23:09;;;;;;;8.13;3.53;;;;;;;24.98;44.00;102125.41;10470931;28;20128;-82
2023/05/29 12:28:11;;;;;;;13.90;3.97;;;;;;;24.33;45.97;102133.69;10455900;28;20041;-79
2023/05/29 12:33:33;;;;;;;14.88;4.43;;;;;;;24.31;46.38;102126.56;10419993;28;20772;-81
2023/05/29 12:38:48;;;;;;;19.23;4.88;;;;;;;24.19;46.03;102132.66;10441999;28;20539;-81
2023/05/29 12:43:49;;;;;;;10.07;3.28;;;;;;;24.16;45.03;102136.19;10441536;28;20107;-81
2023/05/29 12:48:49;;;;;;;13.43;3.20;;;;;;;24.22;44.84;102138.03;10441768;28;20120;-81
2023/05/29 12:53:50;;;;;;;6.63;3.10;;;;;;;23.87;44.05;102149.19;10431198;28;20497;-80
2023/05/29 12:58:51;;;;;;;26.27;5.27;;;;;;;23.53;46.44;102141.63;10412379;28;20056;-82
2023/05/29 13:03:52;;;;;;;10.57;3.33;;;;;;;23.80;46.75;102139.28;10445831;28;20098;-80
2023/05/29 13:08:52;;;;;;;9.23;3.40;;;;;;;23.89;43.48;102148.34;10451445;28;20037;-80
2023/05/29 13:13:53;;;;;;;6.83;2.73;;;;;;;24.12;43.91;102142.41;10450833;28;20124;-81
2023/05/29 13:18:53;;;;;;;5.23;2.33;;;;;;;24.17;43.27;102145.09;10458467;28;20483;-79
2023/05/29 13:23:54;;;;;;;7.37;2.53;;;;;;;23.80;45.01;102133.94;10490835;28;20131;-79
2023/05/29 13:28:54;;;;;;;7.53;3.57;;;;;;;24.03;44.29;102136.94;10477135;28;20048;-79
2023/05/29 13:33:55;;;;;;;7.17;3.73;;;;;;;23.90;44.61;102142.09;10448507;28;20061;-78
2023/05/29 13:38:55;;;;;;;6.40;3.03;;;;;;;23.98;45.29;102141.31;10447917;28;20043;-79
2023/05/29 13:43:56;;;;;;;7.27;3.10;;;;;;;23.74;45.85;102141.00;10448100;28;20108;-79
2023/05/29 13:48:57;;;;;;;11.87;3.20;;;;;;;23.25;45.38;102137.63;10407410;28;20054;-80
2023/05/29 13:53:57;;;;;;;13.80;5.67;;;;;;;23.04;45.30;102141.72;10408823;28;20227;-80
2023/05/29 13:59:04;;;;;;;17.27;5.07;;;;;;;23.15;47.46;102136.56;10406444;28;20128;-80
2023/05/29 14:04:05;;;;;;;13.82;4.10;;;;;;;23.06;46.58;102136.44;10407963;28;20033;-80
2023/05/29 14:09:09;;;;;;;10.03;2.77;;;;;;;22.84;46.82;102136.09;10426526;28;20148;-80
2023/05/29 14:14:10;;;;;;;9.40;3.83;;;;;;;22.51;46.47;102135.50;10445939;28;20037;-81
2023/05/29 14:19:10;;;;;;;7.93;3.60;;;;;;;21.89;47.15;102139.59;10448626;28;20426;-80
2023/05/29 14:24:12;;;;;;;8.37;3.00;;;;;;;21.59;50.81;102134.50;10479577;28;20599;-80
2023/05/29 14:29:13;;;;;;;;;;;;;;;21.70;49.09;102141.88;10446754;28;20100;-80
2023/05/29 14:34:14;;;;;;;11.48;4.68;;;;;;;21.36;50.34;102138.41;10427996;28;19927;-79
2023/05/29 14:39:14;;;;;;;6.17;3.03;;;;;;;21.20;51.74;102133.59;10424170;28;20037;-79
2023/05/29 14:44:15;;;;;;;9.50;3.70;;;;;;;21.23;51.54;102139.00;10440304;28;20071;-78
2023/05/29 14:49:16;;;;;;;8.40;3.80;;;;;;;21.27;51.88;102131.13;10445336;28;20048;-78
2023/05/29 14:54:16;;;;;;;9.93;3.03;;;;;;;21.37;50.35;102136.69;10448001;28;20116;-78
2023/05/29 14:59:18;;;;;;;8.53;3.30;;;;;;;21.50;50.78;102136.09;10446114;28;20055;-79
2023/05/29 15:04:18;;;;;;;23.03;4.37;;;;;;;21.18;51.90;102122.03;10447581;28;20044;-79
2023/05/29 15:09:20;;;;;;;21.10;5.37;;;;;;;21.00;52.16;102122.50;10428783;28;20041;-80
2023/05/29 15:14:21;;;;;;;30.55;8.52;;;;;;;20.87;50.67;102122.19;10444959;28;20127;-80
2023/05/29 15:19:21;;;;;;;12.07;3.80;;;;;;;20.43;51.96;102122.78;10466658;28;20037;-81
2023/05/29 15:24:22;;;;;;;17.53;4.73;;;;;;;20.21;50.70;102123.97;10447313;28;20094;-80
2023/05/29 15:29:23;;;;;;;11.35;2.78;;;;;;;20.18;49.82;102130.09;10430878;28;20385;-81
2023/05/29 15:34:23;;;;;;;11.63;3.53;;;;;;;20.04;50.96;102132.38;10441702;28;20056;-80
2023/05/29 15:39:25;;;;;;;22.58;6.28;;;;;;;19.89;50.37;102126.59;10421855;28;20564;-80
2023/05/29 15:44:26;;;;;;;18.33;5.22;;;;;;;19.89;50.79;102115.97;10431081;28;20045;-80
2023/05/29 15:49:26;;;;;;;9.95;3.65;;;;;;;19.70;51.27;102111.84;10432018;28;20124;-80
2023/05/29 15:54:27;;;;;;;11.93;4.07;;;;;;;19.54;50.53;102113.16;10436025;28;20591;-81
2023/05/29 15:59:29;;;;;;;9.60;2.45;;;;;;;19.21;49.55;102117.44;10433194;28;20125;-81
2023/05/29 16:04:29;;;;;;;10.85;3.42;;;;;;;19.04;50.49;102117.81;10411727;28;20106;-79
2023/05/29 16:09:30;;;;;;;57.97;8.48;;;;;;;18.91;50.70;102118.22;10436164;28;20554;-80
2023/05/29 16:14:30;;;;;;;10.60;3.60;;;;;;;18.81;49.38;102109.06;10433821;28;20128;-81
2023/05/29 16:19:31;;;;;;;11.32;3.38;;;;;;;18.71;50.59;102107.84;10444540;28;20111;-80
2023/05/29 16:24:32;;;;;;;15.65;4.85;;;;;;;18.70;48.33;102110.47;10440694;28;20511;-79
2023/05/29 16:29:33;;;;;;;9.40;3.37;;;;;;;18.54;48.64;102114.31;10413944;28;20045;-79
2023/05/29 16:34:33;;;;;;;12.52;3.42;;;;;;;18.48;49.90;102115.91;10451346;28;20217;-80
2023/05/29 16:39:35;;;;;;;7.85;2.83;;;;;;;18.38;48.60;102123.50;10432925;28;20039;-81
2023/05/29 16:44:36;;;;;;;12.32;2.95;;;;;;;18.33;49.93;102108.34;10477161;28;20111;-81
2023/05/29 16:49:37;;;;;;;12.13;4.00;;;;;;;18.19;49.75;102112.25;10475004;28;20119;-81
2023/05/29 16:54:40;;;;;;;7.85;3.33;;;;;;;18.25;49.30;102106.25;10446531;28;20105;-82
2023/05/29 16:59:41;;;;;;;12.05;3.47;;;;;;;18.24;48.90;102110.66;10449140;28;20384;-79
2023/05/29 17:04:41;;;;;;;25.77;4.78;;;;;;;18.16;48.71;102106.84;10436476;28;20223;-79
2023/05/29 17:09:42;;;;;;;14.45;3.42;;;;;;;18.10;49.16;102106.59;10442065;28;20064;-80
2023/05/29 17:14:42;;;;;;;8.13;2.88;;;;;;;18.02;49.90;102108.97;10436791;28;20509;-80
2023/05/29 17:19:43;;;;;;;9.07;3.33;;;;;;;17.88;50.30;102109.31;10441065;28;20036;-78
2023/05/29 17:24:44;;;;;;;10.70;2.78;;;;;;;17.80;50.91;102108.13;10436925;28;20128;-79
2023/05/29 17:29:44;;;;;;;10.48;2.83;;;;;;;17.75;50.68;102112.34;10401292;28;20044;-79
2023/05/29 17:34:45;;;;;;;15.75;5.05;;;;;;;17.62;50.89;102113.63;10444656;28;20075;-80
2023/05/29 17:39:45;;;;;;;12.32;2.90;;;;;;;17.41;51.28;102117.25;10442086;28;20764;-81
2023/05/29 17:44:45;;;;;;;12.45;4.40;;;;;;;17.23;51.22;102119.16;10412371;28;20065;-81
2023/05/29 17:49:46;;;;;;;10.32;5.18;;;;;;;17.08;52.54;102122.06;10441511;28;20029;-80
2023/05/29 17:54:46;;;;;;;8.98;3.25;;;;;;;16.97;53.08;102117.25;10434658;28;20106;-78
2023/05/29 17:59:47;;;;;;;11.73;3.70;;;;;;;16.73;53.84;102128.56;10487174;28;20388;-80
2023/05/29 18:04:50;;;;;;;11.70;2.83;;;;;;;16.67;54.24;102125.66;10448010;28;20199;-79
2023/05/29 18:09:50;;;;;;;16.88;4.90;;;;;;;16.62;54.75;102126.31;10447028;28;20132;-80
2023/05/29 18:14:51;;;;;;;11.23;3.17;;;;;;;16.39;54.90;102124.47;10433226;28;20523;-80
2023/05/29 18:19:51;;;;;;;7.32;3.28;;;;;;;16.21;55.55;102127.22;10431290;28;20061;-80
2023/05/29 18:24:52;;;;;;;11.80;3.50;;;;;;;15.97;56.67;102129.66;10412722;28;20072;-80
2023/05/29 18:29:53;;;;;;;9.95;2.97;;;;;;;15.75;56.53;102125.97;10442913;28;20123;-82
2023/05/29 18:34:53;;;;;;;11.57;3.05;;;;;;;15.72;56.20;102128.47;10446603;28;20951;-80
2023/05/29 18:39:54;;;;;;;16.60;3.13;;;;;;;15.62;56.66;102134.16;10441503;28;20049;-80
2023/05/29 18:44:55;;;;;;;14.88;3.50;;;;;;;15.44;56.89;102128.94;10463704;28;20194;-80
2023/05/29 18:49:55;;;;;;;17.98;3.03;;;;;;;15.32;56.89;102129.22;10484056;28;20055;-80
2023/05/29 18:54:56;;;;;;;13.38;2.95;;;;;;;15.04;58.22;102130.50;10485307;28;20123;-80
2023/05/29 18:59:56;;;;;;;13.68;4.25;;;;;;;14.94;60.58;102139.72;10488470;28;20036;-81
2023/05/29 19:04:58;;;;;;;10.35;2.75;;;;;;;14.80;62.77;102145.19;10519626;28;20482;-80
2023/05/29 19:09:58;;;;;;;16.37;4.30;;;;;;;14.67;64.65;102143.63;10468296;28;20051;-80
2023/05/29 19:14:59;;;;;;;11.30;2.72;;;;;;;14.55;67.37;102150.88;10487450;28;20036;-79
2023/05/29 19:19:59;;;;;;;6.88;3.42;;;;;;;14.31;71.14;102142.63;10480128;28;20048;-79
2023/05/29 19:25:00;;;;;;;14.98;6.10;;;;;;;14.07;75.11;102144.03;10484446;28;20043;-80
2023/05/29 19:30:00;;;;;;;14.75;5.25;;;;;;;13.93;77.93;102145.91;10467385;28;20060;-79
2023/05/29 19:35:03;;;;;;;13.10;3.38;;;;;;;13.85;82.27;102156.84;10484864;28;20074;-79
2023/05/29 19:40:03;;;;;;;;;;;;;;;13.57;86.46;102163.19;10486599;28;20067;-79
2023/05/29 19:45:04;;;;;;;8.75;3.53;;;;;;;13.41;88.74;102174.56;10485787;28;20003;-79
2023/05/29 19:50:06;;;;;;;25.38;5.70;;;;;;;13.38;90.79;102185.78;10475344;28;20569;-79
2023/05/29 19:55:09;;;;;;;16.40;3.13;;;;;;;13.32;90.61;102185.44;10444594;28;20120;-79
2023/05/29 20:00:10;;;;;;;;;;;;;;;13.18;91.61;102198.69;10477901;28;20040;-78
2023/05/29 20:05:10;;;;;;;10.48;3.33;;;;;;;13.14;90.60;102199.31;10454609;28;19928;-80
2023/05/29 20:10:11;;;;;;;10.23;3.90;;;;;;;13.24;89.52;102203.41;10467909;28;20119;-80
2023/05/29 20:15:12;;;;;;;16.33;3.75;;;;;;;13.07;91.65;102215.56;10484340;28;20423;-79
2023/05/29 20:20:12;;;;;;;11.63;2.35;;;;;;;12.96;94.19;102199.16;10482690;28;20132;-79
2023/05/29 20:25:13;;;;;;;8.18;3.00;;;;;;;12.88;95.14;102214.47;10484914;28;20040;-78
2023/05/29 20:30:14;;;;;;;12.73;3.20;;;;;;;12.75;98.39;102214.53;10481663;28;20090;-79
2023/05/29 20:35:20;;;;;;;9.57;3.70;;;;;;;12.73;100.00;102222.34;10483101;28;20047;-79
2023/05/29 20:40:21;;;;;;;12.07;3.00;;;;;;;12.65;100.00;102220.03;10479456;28;20431;-79
2023/05/29 20:45:21;;;;;;;7.82;3.95;;;;;;;12.51;100.00;102220.13;10443243;28;20174;-78
2023/05/29 20:50:25;;;;;;;8.88;2.38;;;;;;;12.34;100.00;102216.47;10482520;28;20115;-78
2023/05/29 20:55:26;;;;;;;10.23;4.57;;;;;;;12.11;100.00;102222.88;10481146;28;20044;-78
2023/05/29 21:00:26;;;;;;;8.10;3.50;;;;;;;11.93;100.00;102223.50;10447000;28;20162;-79
2023/05/29 21:05:27;;;;;;;7.95;2.42;;;;;;;11.84;100.00;102217.66;10474301;28;20040;-78
2023/05/29 21:10:28;;;;;;;12.98;3.90;;;;;;;11.65;100.00;102220.81;10483989;28;20124;-78
2023/05/29 21:15:28;;;;;;;14.77;2.50;;;;;;;11.44;100.00;102222.13;10496690;28;20555;-78
2023/05/29 21:20:29;;;;;;;11.25;2.53;;;;;;;11.35;100.00;102223.25;10484505;28;20605;-79
2023/05/29 21:25:30;;;;;;;7.70;2.80;;;;;;;11.35;100.00;102233.75;10472016;28;20128;-79
2023/05/29 21:30:31;;;;;;;5.43;2.95;;;;;;;11.29;100.00;102234.22;10491016;28;20414;-79
2023/05/29 21:35:32;;;;;;;10.13;2.33;;;;;;;11.09;100.00;102240.75;10489954;28;20028;-78
2023/05/29 21:40:32;;;;;;;17.10;3.65;;;;;;;11.06;100.00;102230.06;10488081;28;20033;-79
2023/05/29 21:45:33;;;;;;;8.75;3.40;;;;;;;11.00;100.00;102238.41;10488120;28;20131;-79
2023/05/29 21:50:33;;;;;;;6.20;2.63;;;;;;;10.87;100.00;102250.66;10489137;28;20147;-79
2023/05/29 21:55:34;;;;;;;5.40;2.53;;;;;;;10.96;100.00;102258.28;10490873;28;20110;-78
2023/05/29 22:00:34;;;;;;;10.35;2.55;;;;;;;10.85;100.00;102260.13;10523420;28;20052;-78
2023/05/29 22:05:35;;;;;;;4.80;2.03;;;;;;;10.84;100.00;102260.03;10487495;28;20037;-79
2023/05/29 22:10:35;;;;;;;11.13;2.65;;;;;;;10.69;100.00;102260.81;10488391;28;20040;-81
2023/05/29 22:15:36;;;;;;;10.55;3.53;;;;;;;10.57;100.00;102267.81;10488649;28;20171;-79
2023/05/29 22:20:36;;;;;;;10.70;2.85;;;;;;;10.42;100.00;102265.91;10488992;28;20085;-80
2023/05/29 22:25:37;;;;;;;8.73;3.00;;;;;;;10.26;100.00;102279.56;10521279;28;20425;-78
2023/05/29 22:30:38;;;;;;;8.57;2.80;;;;;;;10.17;100.00;102280.63;10488839;28;20037;-79
2023/05/29 22:35:39;;;;;;;11.25;2.65;;;;;;;10.07;100.00;102285.22;10485818;28;20523;-80
2023/05/29 22:40:40;;;;;;;21.20;3.83;;;;;;;9.97;100.00;102285.34;10489120;28;20392;-79
2023/05/29 22:45:40;;;;;;;10.73;3.28;;;;;;;9.93;100.00;102288.53;10488405;28;20127;-80
2023/05/29 22:50:41;;;;;;;9.00;2.85;;;;;;;9.83;100.00;102292.16;10487098;28;20063;-80
2023/05/29 22:55:47;;;;;;;10.55;3.15;;;;;;;9.65;100.00;102305.69;10486580;28;20067;-79